Larisa, Greece
Current Conditions -  °F | °C
As of 12:50 AM on Saturday 20 Dec 2014 (Local Time) from LGBL Reporting Station
Clear Clear  
Wind Chill: 36°   Ceiling: Unl
Heat Index: 39°   Visibility: 6mi
Dew Point: 39°   Wind: 5mph
Humidity: 100%   Direction: 300°WNW
Pressure: 30.21"   Gusts: NA
Location:  39.64°N, 22.42°E
Report Text: LGBL 192150Z 30004KT CAVOK 04/04 Q1023
Loading
Personal Weather Stations






























Interactive Weather Map New forecast layout! Learn more

10-Day Weather Forecast

Advertisements
Track Severe Weather on mobile